sensor_id;sensor_type;location;lat;lon;timestamp;pressure;altitude;pressure_sealevel;temperature;humidity
8039;BME280;4062;49.844;8.120;2023-02-28T00:01:18;100331.25;;;14.30;54.06
8039;BME280;4062;49.844;8.120;2023-02-28T00:03:19;100329.50;;;14.31;54.13
8039;BME280;4062;49.844;8.120;2023-02-28T00:05:23;100328.59;;;14.30;54.06
8039;BME280;4062;49.844;8.120;2023-02-28T00:07:24;100329.50;;;14.29;53.88
8039;BME280;4062;49.844;8.120;2023-02-28T00:09:25;100329.50;;;14.29;53.90
8039;BME280;4062;49.844;8.120;2023-02-28T00:11:25;100327.75;;;14.28;54.04
8039;BME280;4062;49.844;8.120;2023-02-28T00:13:26;100323.34;;;14.29;54.05
8039;BME280;4062;49.844;8.120;2023-02-28T00:15:27;100321.53;;;14.29;54.01
8039;BME280;4062;49.844;8.120;2023-02-28T00:17:28;100326.84;;;14.29;54.00
8039;BME280;4062;49.844;8.120;2023-02-28T00:19:29;100326.84;;;14.29;53.97
8039;BME280;4062;49.844;8.120;2023-02-28T00:21:30;100326.00;;;14.29;53.89
8039;BME280;4062;49.844;8.120;2023-02-28T00:23:31;100330.41;;;14.28;53.95
8039;BME280;4062;49.844;8.120;2023-02-28T00:25:32;100325.09;;;14.28;53.75
8039;BME280;4062;49.844;8.120;2023-02-28T00:27:34;100330.41;;;14.28;53.77
8039;BME280;4062;49.844;8.120;2023-02-28T00:29:38;100327.75;;;14.28;54.01
8039;BME280;4062;49.844;8.120;2023-02-28T00:31:39;100332.22;;;14.28;53.89
8039;BME280;4062;49.844;8.120;2023-02-28T00:33:40;100324.25;;;14.28;54.01
8039;BME280;4062;49.844;8.120;2023-02-28T00:35:41;100326.91;;;14.28;54.02
8039;BME280;4062;49.844;8.120;2023-02-28T00:37:43;100331.34;;;14.27;53.98
8039;BME280;4062;49.844;8.120;2023-02-28T00:39:44;100326.03;;;14.27;54.08
8039;BME280;4062;49.844;8.120;2023-02-28T00:41:45;100333.13;;;14.27;54.01
8039;BME280;4062;49.844;8.120;2023-02-28T00:43:48;100331.34;;;14.27;54.06
8039;BME280;4062;49.844;8.120;2023-02-28T00:45:49;100328.69;;;14.27;54.15
8039;BME280;4062;49.844;8.120;2023-02-28T00:47:49;100329.59;;;14.26;53.83
8039;BME280;4062;49.844;8.120;2023-02-28T00:49:52;100319.84;;;14.27;54.03
8039;BME280;4062;49.844;8.120;2023-02-28T00:51:54;100324.28;;;14.26;54.06
8039;BME280;4062;49.844;8.120;2023-02-28T00:53:55;100326.94;;;14.26;53.93
8039;BME280;4062;49.844;8.120;2023-02-28T00:55:58;100326.94;;;14.26;54.07
8039;BME280;4062;49.844;8.120;2023-02-28T00:58:00;100321.63;;;14.26;54.17
8039;BME280;4062;49.844;8.120;2023-02-28T01:00:03;100325.16;;;14.27;53.83
8039;BME280;4062;49.844;8.120;2023-02-28T01:02:04;100322.53;;;14.25;53.87
8039;BME280;4062;49.844;8.120;2023-02-28T01:04:05;100326.06;;;14.26;53.95
8039;BME280;4062;49.844;8.120;2023-02-28T01:06:09;100324.28;;;14.26;54.12
8039;BME280;4062;49.844;8.120;2023-02-28T01:08:09;100327.84;;;14.25;53.91
8039;BME280;4062;49.844;8.120;2023-02-28T01:10:10;100330.50;;;14.25;53.84
8039;BME280;4062;49.844;8.120;2023-02-28T01:12:11;100327.84;;;14.25;54.03
8039;BME280;4062;49.844;8.120;2023-02-28T01:14:16;100331.38;;;14.26;54.06
8039;BME280;4062;49.844;8.120;2023-02-28T01:16:18;100329.59;;;14.26;53.94
8039;BME280;4062;49.844;8.120;2023-02-28T01:18:21;100322.53;;;14.25;54.11
8039;BME280;4062;49.844;8.120;2023-02-28T01:20:22;100326.94;;;14.26;54.05
8039;BME280;4062;49.844;8.120;2023-02-28T01:22:23;100325.19;;;14.25;54.07
8039;BME280;4062;49.844;8.120;2023-02-28T01:24:24;100315.44;;;14.26;54.10
8039;BME280;4062;49.844;8.120;2023-02-28T01:26:25;100314.56;;;14.25;53.95
8039;BME280;4062;49.844;8.120;2023-02-28T01:28:25;100319.88;;;14.25;54.00
8039;BME280;4062;49.844;8.120;2023-02-28T01:30:27;100316.31;;;14.26;54.03
8039;BME280;4062;49.844;8.120;2023-02-28T01:32:27;100319.88;;;14.25;54.01
8039;BME280;4062;49.844;8.120;2023-02-28T01:34:28;100314.56;;;14.25;54.09
8039;BME280;4062;49.844;8.120;2023-02-28T01:36:29;100315.44;;;14.26;53.86
8039;BME280;4062;49.844;8.120;2023-02-28T01:38:31;100314.56;;;14.25;54.00
8039;BME280;4062;49.844;8.120;2023-02-28T01:40:32;100314.56;;;14.25;53.98
8039;BME280;4062;49.844;8.120;2023-02-28T01:42:33;100313.69;;;14.25;54.08
8039;BME280;4062;49.844;8.120;2023-02-28T01:47:18;100308.34;;;14.25;54.05
8039;BME280;4062;49.844;8.120;2023-02-28T01:49:20;100313.69;;;14.25;53.93
8039;BME280;4062;49.844;8.120;2023-02-28T01:51:37;100313.69;;;14.25;53.89
8039;BME280;4062;49.844;8.120;2023-02-28T01:53:53;100312.81;;;14.24;53.95
8039;BME280;4062;49.844;8.120;2023-02-28T01:55:55;100309.25;;;14.25;54.05
8039;BME280;4062;49.844;8.120;2023-02-28T01:57:59;100312.81;;;14.24;53.90
8039;BME280;4062;49.844;8.120;2023-02-28T02:00:14;100305.69;;;14.25;53.91
8039;BME280;4062;49.844;8.120;2023-02-28T02:02:22;100307.50;;;14.24;53.87
8039;BME280;4062;49.844;8.120;2023-02-28T02:04:26;100302.19;;;14.24;53.91
8039;BME280;4062;49.844;8.120;2023-02-28T02:06:38;100301.28;;;14.23;54.07
8039;BME280;4062;49.844;8.120;2023-02-28T02:08:44;100297.78;;;14.23;54.05
8039;BME280;4062;49.844;8.120;2023-02-28T02:11:01;100303.94;;;14.23;54.03
8039;BME280;4062;49.844;8.120;2023-02-28T02:13:34;100295.97;;;14.23;53.95
8039;BME280;4062;49.844;8.120;2023-02-28T02:21:06;100288.91;;;14.24;53.95
8039;BME280;4062;49.844;8.120;2023-02-28T02:26:47;100295.97;;;14.25;54.07
8039;BME280;4062;49.844;8.120;2023-02-28T02:31:32;100290.53;;;14.28;54.08
8039;BME280;4062;49.844;8.120;2023-02-28T02:34:34;100289.63;;;14.31;54.07
8039;BME280;4062;49.844;8.120;2023-02-28T02:36:42;100289.63;;;14.31;54.20
8039;BME280;4062;49.844;8.120;2023-02-28T02:39:13;100293.09;;;14.33;54.04
8039;BME280;4062;49.844;8.120;2023-02-28T02:41:34;100288.66;;;14.33;54.15
8039;BME280;4062;49.844;8.120;2023-02-28T02:43:57;100286.84;;;14.35;54.08
8039;BME280;4062;49.844;8.120;2023-02-28T02:46:06;100290.31;;;14.37;54.06
8039;BME280;4062;49.844;8.120;2023-02-28T02:48:14;100293.88;;;14.38;54.00
8039;BME280;4062;49.844;8.120;2023-02-28T02:50:24;100291.22;;;14.38;54.11
8039;BME280;4062;49.844;8.120;2023-02-28T02:52:35;100292.06;;;14.38;54.21
8039;BME280;4062;49.844;8.120;2023-02-28T02:54:43;100288.50;;;14.39;54.04
8039;BME280;4062;49.844;8.120;2023-02-28T02:56:47;100300.03;;;14.40;54.06
8039;BME280;4062;49.844;8.120;2023-02-28T02:58:51;100286.72;;;14.40;54.18
8039;BME280;4062;49.844;8.120;2023-02-28T03:00:59;100290.25;;;14.41;54.12
8039;BME280;4062;49.844;8.120;2023-02-28T03:03:01;100285.84;;;14.39;54.38
8039;BME280;4062;49.844;8.120;2023-02-28T03:05:12;100292.91;;;14.41;54.09
8039;BME280;4062;49.844;8.120;2023-02-28T03:07:18;100289.38;;;14.40;53.96
8039;BME280;4062;49.844;8.120;2023-02-28T03:09:19;100291.09;;;14.41;54.03
8039;BME280;4062;49.844;8.120;2023-02-28T03:11:20;100292.91;;;14.41;54.05
8039;BME280;4062;49.844;8.120;2023-02-28T03:24:23;100282.31;;;14.39;54.04
8039;BME280;4062;49.844;8.120;2023-02-28T03:26:28;100282.31;;;14.39;53.78
8039;BME280;4062;49.844;8.120;2023-02-28T03:28:58;100279.66;;;14.39;53.88
8039;BME280;4062;49.844;8.120;2023-02-28T03:33:36;100285.00;;;14.37;53.93
8039;BME280;4062;49.844;8.120;2023-02-28T03:35:45;100285.88;;;14.38;54.07
8039;BME280;4062;49.844;8.120;2023-02-28T03:37:53;100287.66;;;14.37;54.12
8039;BME280;4062;49.844;8.120;2023-02-28T03:40:01;100286.78;;;14.37;53.98
8039;BME280;4062;49.844;8.120;2023-02-28T03:42:21;100285.91;;;14.36;53.85
8039;BME280;4062;49.844;8.120;2023-02-28T03:44:39;100284.13;;;14.37;54.09
8039;BME280;4062;49.844;8.120;2023-02-28T03:47:05;100283.25;;;14.36;53.92
8039;BME280;4062;49.844;8.120;2023-02-28T03:49:25;100282.38;;;14.36;53.89
8039;BME280;4062;49.844;8.120;2023-02-28T03:51:29;100286.84;;;14.35;54.05
8039;BME280;4062;49.844;8.120;2023-02-28T03:53:36;100289.50;;;14.35;53.76
8039;BME280;4062;49.844;8.120;2023-02-28T03:55:49;100286.84;;;14.35;53.81
8039;BME280;4062;49.844;8.120;2023-02-28T04:00:23;100291.31;;;14.33;54.00
8039;BME280;4062;49.844;8.120;2023-02-28T04:02:26;100291.31;;;14.33;53.95
8039;BME280;4062;49.844;8.120;2023-02-28T04:04:28;100291.31;;;14.33;53.85
8039;BME280;4062;49.844;8.120;2023-02-28T04:06:32;100293.09;;;14.33;54.03
8039;BME280;4062;49.844;8.120;2023-02-28T04:08:33;100292.22;;;14.32;53.81
8039;BME280;4062;49.844;8.120;2023-02-28T04:10:34;100293.09;;;14.33;54.09
8039;BME280;4062;49.844;8.120;2023-02-28T04:12:35;100294.00;;;14.32;53.77
8039;BME280;4062;49.844;8.120;2023-02-28T04:14:36;100290.47;;;14.31;53.98
8039;BME280;4062;49.844;8.120;2023-02-28T04:16:40;100290.47;;;14.31;53.95
8039;BME280;4062;49.844;8.120;2023-02-28T04:18:42;100294.03;;;14.30;54.11
8039;BME280;4062;49.844;8.120;2023-02-28T04:20:45;100286.97;;;14.31;53.91
8039;BME280;4062;49.844;8.120;2023-02-28T04:22:46;100288.72;;;14.30;53.92
8039;BME280;4062;49.844;8.120;2023-02-28T04:24:47;100294.03;;;14.30;53.58
8039;BME280;4062;49.844;8.120;2023-02-28T04:26:51;100291.38;;;14.30;53.99
8039;BME280;4062;49.844;8.120;2023-02-28T04:28:52;100299.38;;;14.30;53.91
8039;BME280;4062;49.844;8.120;2023-02-28T04:30:58;100301.13;;;14.31;53.93
8039;BME280;4062;49.844;8.120;2023-02-28T04:33:00;100297.59;;;14.31;53.96
8039;BME280;4062;49.844;8.120;2023-02-28T04:35:01;100293.13;;;14.31;54.03
8039;BME280;4062;49.844;8.120;2023-02-28T04:37:03;100287.81;;;14.31;53.86
8039;BME280;4062;49.844;8.120;2023-02-28T04:39:04;100297.53;;;14.32;53.97
8039;BME280;4062;49.844;8.120;2023-02-28T04:41:05;100293.09;;;14.33;54.04
8039;BME280;4062;49.844;8.120;2023-02-28T04:43:06;100289.53;;;14.34;54.04
8039;BME280;4062;49.844;8.120;2023-02-28T04:45:08;100285.09;;;14.34;54.03
8039;BME280;4062;49.844;8.120;2023-02-28T04:47:10;100292.16;;;14.35;53.96
8039;BME280;4062;49.844;8.120;2023-02-28T04:49:12;100293.03;;;14.36;54.13
8039;BME280;4062;49.844;8.120;2023-02-28T04:51:15;100287.72;;;14.36;53.94
8039;BME280;4062;49.844;8.120;2023-02-28T04:53:16;100284.13;;;14.37;53.85
8039;BME280;4062;49.844;8.120;2023-02-28T04:55:17;100283.25;;;14.36;54.06
8039;BME280;4062;49.844;8.120;2023-02-28T04:57:18;100278.81;;;14.37;53.99
8039;BME280;4062;49.844;8.120;2023-02-28T04:59:19;100282.34;;;14.37;53.98
8039;BME280;4062;49.844;8.120;2023-02-28T05:01:27;100289.47;;;14.37;54.08
8039;BME280;4062;49.844;8.120;2023-02-28T05:03:29;100282.34;;;14.37;54.14
8039;BME280;4062;49.844;8.120;2023-02-28T05:05:30;100290.31;;;14.37;54.02
8039;BME280;4062;49.844;8.120;2023-02-28T05:07:31;100290.31;;;14.37;53.94
8039;BME280;4062;49.844;8.120;2023-02-28T05:09:31;100287.66;;;14.37;53.93
8039;BME280;4062;49.844;8.120;2023-02-28T05:11:34;100287.66;;;14.37;54.01
8039;BME280;4062;49.844;8.120;2023-02-28T05:13:35;100284.13;;;14.37;54.05
8039;BME280;4062;49.844;8.120;2023-02-28T05:15:36;100287.66;;;14.37;53.84
8039;BME280;4062;49.844;8.120;2023-02-28T05:17:37;100290.31;;;14.37;53.98
8039;BME280;4062;49.844;8.120;2023-02-28T05:19:38;100290.38;;;14.36;53.76
8039;BME280;4062;49.844;8.120;2023-02-28T05:21:42;100291.22;;;14.36;53.89
8039;BME280;4062;49.844;8.120;2023-02-28T05:23:48;100290.38;;;14.36;53.96
8039;BME280;4062;49.844;8.120;2023-02-28T05:25:49;100294.81;;;14.35;53.93
8039;BME280;4062;49.844;8.120;2023-02-28T05:27:50;100287.75;;;14.34;53.91
8039;BME280;4062;49.844;8.120;2023-02-28T05:29:51;100286.84;;;14.35;53.89
8039;BME280;4062;49.844;8.120;2023-02-28T05:31:52;100289.50;;;14.35;54.00
8039;BME280;4062;49.844;8.120;2023-02-28T05:33:53;100285.09;;;14.34;53.83
8039;BME280;4062;49.844;8.120;2023-02-28T05:35:54;100290.41;;;14.34;53.97
8039;BME280;4062;49.844;8.120;2023-02-28T05:37:54;100293.94;;;14.35;53.97
8039;BME280;4062;49.844;8.120;2023-02-28T05:39:55;100302.81;;;14.34;53.94
8039;BME280;4062;49.844;8.120;2023-02-28T05:41:56;100291.31;;;14.33;53.88
8039;BME280;4062;49.844;8.120;2023-02-28T05:43:58;100294.84;;;14.34;53.70
8039;BME280;4062;49.844;8.120;2023-02-28T05:46:06;100303.72;;;14.33;53.85
8039;BME280;4062;49.844;8.120;2023-02-28T05:48:08;100295.75;;;14.33;53.68
8039;BME280;4062;49.844;8.120;2023-02-28T05:50:09;100301.06;;;14.33;53.97
8039;BME280;4062;49.844;8.120;2023-02-28T05:52:11;100308.19;;;14.32;54.01
8039;BME280;4062;49.844;8.120;2023-02-28T05:54:12;100309.03;;;14.33;54.07
8039;BME280;4062;49.844;8.120;2023-02-28T05:56:13;100307.28;;;14.32;53.98
8039;BME280;4062;49.844;8.120;2023-02-28T05:58:14;100301.13;;;14.31;53.79
8039;BME280;4062;49.844;8.120;2023-02-28T06:00:15;100300.25;;;14.31;53.89
8039;BME280;4062;49.844;8.120;2023-02-28T06:02:18;100307.28;;;14.32;53.96
8039;BME280;4062;49.844;8.120;2023-02-28T06:04:20;100303.81;;;14.30;53.90
8039;BME280;4062;49.844;8.120;2023-02-28T06:06:22;100308.22;;;14.31;54.06
8039;BME280;4062;49.844;8.120;2023-02-28T06:08:22;100299.38;;;14.30;54.00
8039;BME280;4062;49.844;8.120;2023-02-28T06:10:23;100305.59;;;14.29;54.05
8039;BME280;4062;49.844;8.120;2023-02-28T06:12:24;100299.41;;;14.29;53.79
8039;BME280;4062;49.844;8.120;2023-02-28T06:14:25;100302.06;;;14.29;53.79
8039;BME280;4062;49.844;8.120;2023-02-28T06:16:27;100305.63;;;14.28;53.84
8039;BME280;4062;49.844;8.120;2023-02-28T06:18:28;100303.84;;;14.28;53.99
8039;BME280;4062;49.844;8.120;2023-02-28T06:20:29;100304.78;;;14.27;53.89
8039;BME280;4062;49.844;8.120;2023-02-28T06:22:30;100310.94;;;14.28;53.78
8039;BME280;4062;49.844;8.120;2023-02-28T06:24:32;100304.78;;;14.27;53.87
8039;BME280;4062;49.844;8.120;2023-02-28T06:26:33;100308.28;;;14.28;53.85
8039;BME280;4062;49.844;8.120;2023-02-28T06:28:33;100309.16;;;14.28;53.93
8039;BME280;4062;49.844;8.120;2023-02-28T06:30:34;100312.69;;;14.29;53.92
8039;BME280;4062;49.844;8.120;2023-02-28T06:32:37;100322.38;;;14.31;53.96
8039;BME280;4062;49.844;8.120;2023-02-28T06:34:38;100323.25;;;14.32;54.00
8039;BME280;4062;49.844;8.120;2023-02-28T06:36:40;100328.53;;;14.33;53.95
8039;BME280;4062;49.844;8.120;2023-02-28T06:38:42;100325.88;;;14.33;53.83
8039;BME280;4062;49.844;8.120;2023-02-28T06:40:44;100333.75;;;14.36;54.08
8039;BME280;4062;49.844;8.120;2023-02-28T06:42:47;100333.75;;;14.36;53.89
8039;BME280;4062;49.844;8.120;2023-02-28T06:44:48;100332.84;;;14.37;54.01
8039;BME280;4062;49.844;8.120;2023-02-28T06:46:49;100324.00;;;14.37;53.88
8039;BME280;4062;49.844;8.120;2023-02-28T06:48:50;100333.75;;;14.38;54.00
8039;BME280;4062;49.844;8.120;2023-02-28T06:51:00;100334.59;;;14.38;54.05
8039;BME280;4062;49.844;8.120;2023-02-28T06:53:01;100339.91;;;14.38;53.95
8039;BME280;4062;49.844;8.120;2023-02-28T06:55:07;100336.34;;;14.39;54.08
8039;BME280;4062;49.844;8.120;2023-02-28T06:57:08;100343.47;;;14.39;53.87
8039;BME280;4062;49.844;8.120;2023-02-28T06:59:09;100340.75;;;14.41;54.07
8039;BME280;4062;49.844;8.120;2023-02-28T07:01:10;100338.16;;;14.39;54.11
8039;BME280;4062;49.844;8.120;2023-02-28T07:03:12;100344.31;;;14.39;53.86
8039;BME280;4062;49.844;8.120;2023-02-28T07:05:13;100347.88;;;14.40;53.99
8039;BME280;4062;49.844;8.120;2023-02-28T07:07:14;100340.75;;;14.41;54.12
8039;BME280;4062;49.844;8.120;2023-02-28T07:09:15;100342.56;;;14.40;53.90
8039;BME280;4062;49.844;8.120;2023-02-28T07:11:16;100339.91;;;14.40;53.82
8039;BME280;4062;49.844;8.120;2023-02-28T07:13:17;100345.22;;;14.40;53.79
8039;BME280;4062;49.844;8.120;2023-02-28T07:15:18;100346.13;;;14.39;53.98
8039;BME280;4062;49.844;8.120;2023-02-28T07:17:18;100349.66;;;14.39;53.88
8039;BME280;4062;49.844;8.120;2023-02-28T07:19:19;100345.25;;;14.38;53.78
8039;BME280;4062;49.844;8.120;2023-02-28T07:21:22;100351.44;;;14.39;53.91
8039;BME280;4062;49.844;8.120;2023-02-28T07:23:24;100349.69;;;14.38;53.93
8039;BME280;4062;49.844;8.120;2023-02-28T07:25:27;100349.69;;;14.38;53.88
8039;BME280;4062;49.844;8.120;2023-02-28T07:27:28;100351.47;;;14.37;53.98
8039;BME280;4062;49.844;8.120;2023-02-28T07:29:29;100353.25;;;14.37;53.96
8039;BME280;4062;49.844;8.120;2023-02-28T07:31:30;100358.56;;;14.37;53.91
8039;BME280;4062;49.844;8.120;2023-02-28T07:33:31;100356.78;;;14.37;53.98
8039;BME280;4062;49.844;8.120;2023-02-28T07:35:31;100360.34;;;14.36;53.88
8039;BME280;4062;49.844;8.120;2023-02-28T07:37:33;100357.69;;;14.36;53.80
8039;BME280;4062;49.844;8.120;2023-02-28T07:39:37;100356.81;;;14.36;53.90
8039;BME280;4062;49.844;8.120;2023-02-28T07:41:38;100365.66;;;14.36;53.91
8039;BME280;4062;49.844;8.120;2023-02-28T07:43:44;100351.50;;;14.36;53.96
8039;BME280;4062;49.844;8.120;2023-02-28T07:45:45;100350.66;;;14.35;53.88
8039;BME280;4062;49.844;8.120;2023-02-28T07:47:46;100353.31;;;14.35;53.80
8039;BME280;4062;49.844;8.120;2023-02-28T07:49:46;100358.63;;;14.35;53.73
8039;BME280;4062;49.844;8.120;2023-02-28T07:51:47;100355.06;;;14.35;53.80
8039;BME280;4062;49.844;8.120;2023-02-28T07:53:48;100348.91;;;14.34;53.80
8039;BME280;4062;49.844;8.120;2023-02-28T07:55:49;100353.31;;;14.34;53.74
8039;BME280;4062;49.844;8.120;2023-02-28T07:57:50;100345.34;;;14.34;53.89
8039;BME280;4062;49.844;8.120;2023-02-28T07:59:51;100349.81;;;14.33;53.89
8039;BME280;4062;49.844;8.120;2023-02-28T08:01:52;100358.69;;;14.32;53.82
8039;BME280;4062;49.844;8.120;2023-02-28T08:03:53;100358.69;;;14.32;53.74
8039;BME280;4062;49.844;8.120;2023-02-28T08:05:55;100365.75;;;14.33;53.75
8039;BME280;4062;49.844;8.120;2023-02-28T08:07:56;100359.59;;;14.31;53.86
8039;BME280;4062;49.844;8.120;2023-02-28T08:09:57;100368.44;;;14.32;53.79
8039;BME280;4062;49.844;8.120;2023-02-28T08:11:58;100363.13;;;14.32;53.91
8039;BME280;4062;49.844;8.120;2023-02-28T08:13:59;100364.06;;;14.31;53.89
8039;BME280;4062;49.844;8.120;2023-02-28T08:16:02;100363.16;;;14.30;53.85
8039;BME280;4062;49.844;8.120;2023-02-28T08:18:03;100363.16;;;14.30;53.73
8039;BME280;4062;49.844;8.120;2023-02-28T08:20:05;100363.16;;;14.30;53.73
8039;BME280;4062;49.844;8.120;2023-02-28T08:22:06;100362.31;;;14.30;53.86
8039;BME280;4062;49.844;8.120;2023-02-28T08:24:07;100364.06;;;14.29;53.80
8039;BME280;4062;49.844;8.120;2023-02-28T08:26:08;100370.28;;;14.30;53.88
8039;BME280;4062;49.844;8.120;2023-02-28T08:28:09;100370.28;;;14.30;53.90
8039;BME280;4062;49.844;8.120;2023-02-28T08:30:14;100372.03;;;14.31;53.79
8039;BME280;4062;49.844;8.120;2023-02-28T08:32:15;100371.09;;;14.32;53.89
8039;BME280;4062;49.844;8.120;2023-02-28T08:34:16;100370.22;;;14.31;53.90
8039;BME280;4062;49.844;8.120;2023-02-28T08:36:18;100366.66;;;14.32;53.79
8039;BME280;4062;49.844;8.120;2023-02-28T08:38:19;100368.41;;;14.33;53.72
8039;BME280;4062;49.844;8.120;2023-02-28T08:40:19;100369.28;;;14.34;54.01
8039;BME280;4062;49.844;8.120;2023-02-28T08:42:21;100364.84;;;14.34;53.86
8039;BME280;4062;49.844;8.120;2023-02-28T08:44:21;100364.81;;;14.36;53.93
8039;BME280;4062;49.844;8.120;2023-02-28T08:46:23;100375.38;;;14.37;53.99
8039;BME280;4062;49.844;8.120;2023-02-28T08:48:26;100367.41;;;14.37;53.81
8039;BME280;4062;49.844;8.120;2023-02-28T08:50:27;100368.31;;;14.38;53.96
8039;BME280;4062;49.844;8.120;2023-02-28T08:52:28;100366.50;;;14.38;53.92
8039;BME280;4062;49.844;8.120;2023-02-28T08:54:29;100372.72;;;14.39;54.03
8039;BME280;4062;49.844;8.120;2023-02-28T08:56:32;100370.91;;;14.39;53.71
8039;BME280;4062;49.844;8.120;2023-02-28T08:58:33;100371.81;;;14.40;53.95
8039;BME280;4062;49.844;8.120;2023-02-28T09:00:34;100369.16;;;14.40;54.03
8039;BME280;4062;49.844;8.120;2023-02-28T09:02:37;100366.44;;;14.42;53.95
8039;BME280;4062;49.844;8.120;2023-02-28T09:04:38;100360.22;;;14.41;53.99
8039;BME280;4062;49.844;8.120;2023-02-28T09:06:39;100362.03;;;14.41;54.05
8039;BME280;4062;49.844;8.120;2023-02-28T09:08:41;100373.53;;;14.41;53.85
8039;BME280;4062;49.844;8.120;2023-02-28T09:10:42;100363.78;;;14.42;53.89
8039;BME280;4062;49.844;8.120;2023-02-28T09:12:43;100358.50;;;14.40;53.89
8039;BME280;4062;49.844;8.120;2023-02-28T09:14:46;100350.53;;;14.40;53.91
8039;BME280;4062;49.844;8.120;2023-02-28T09:16:47;100356.72;;;14.41;53.96
8039;BME280;4062;49.844;8.120;2023-02-28T09:18:48;100362.03;;;14.41;53.80
8039;BME280;4062;49.844;8.120;2023-02-28T09:20:49;100358.50;;;14.40;53.93
8039;BME280;4062;49.844;8.120;2023-02-28T09:22:50;100357.56;;;14.41;53.83
8039;BME280;4062;49.844;8.120;2023-02-28T09:24:51;100362.94;;;14.39;53.90
8039;BME280;4062;49.844;8.120;2023-02-28T09:26:52;100363.84;;;14.40;53.93
8039;BME280;4062;49.844;8.120;2023-02-28T09:28:54;100364.69;;;14.41;53.69
8039;BME280;4062;49.844;8.120;2023-02-28T09:30:55;100365.59;;;14.39;53.92
8039;BME280;4062;49.844;8.120;2023-02-28T09:32:58;100364.75;;;14.39;53.76
8039;BME280;4062;49.844;8.120;2023-02-28T09:34:59;100371.81;;;14.38;53.81
8039;BME280;4062;49.844;8.120;2023-02-28T09:36:59;100363.84;;;14.38;53.79
8039;BME280;4062;49.844;8.120;2023-02-28T09:39:00;100369.16;;;14.38;53.74
8039;BME280;4062;49.844;8.120;2023-02-28T09:41:11;100360.31;;;14.38;53.88
8039;BME280;4062;49.844;8.120;2023-02-28T09:43:15;100370.06;;;14.37;53.88
8039;BME280;4062;49.844;8.120;2023-02-28T09:45:37;100376.28;;;14.38;53.80
8039;BME280;4062;49.844;8.120;2023-02-28T09:47:44;100363.00;;;14.38;53.81
8039;BME280;4062;49.844;8.120;2023-02-28T09:49:47;100360.34;;;14.36;53.74
8039;BME280;4062;49.844;8.120;2023-02-28T09:52:01;100366.56;;;14.37;53.93
8039;BME280;4062;49.844;8.120;2023-02-28T09:54:03;100372.72;;;14.37;53.78
8039;BME280;4062;49.844;8.120;2023-02-28T09:56:51;100362.09;;;14.37;53.75
8039;BME280;4062;49.844;8.120;2023-02-28T09:59:17;100356.78;;;14.37;54.00
8039;BME280;4062;49.844;8.120;2023-02-28T10:02:01;100355.91;;;14.37;53.66
8039;BME280;4062;49.844;8.120;2023-02-28T10:06:38;100365.66;;;14.36;53.58
8039;BME280;4062;49.844;8.120;2023-02-28T10:09:08;100367.47;;;14.36;53.87
8039;BME280;4062;49.844;8.120;2023-02-28T10:11:16;100368.31;;;14.36;53.86
8039;BME280;4062;49.844;8.120;2023-02-28T10:13:49;100366.59;;;14.35;53.81
8039;BME280;4062;49.844;8.120;2023-02-28T10:15:56;100371.03;;;14.35;53.73
8039;BME280;4062;49.844;8.120;2023-02-28T10:18:06;100371.03;;;14.35;53.87
8039;BME280;4062;49.844;8.120;2023-02-28T10:20:19;100377.22;;;14.35;54.00
8039;BME280;4062;49.844;8.120;2023-02-28T10:22:29;100370.16;;;14.34;53.95
8039;BME280;4062;49.844;8.120;2023-02-28T10:24:42;100374.59;;;14.34;53.79
8039;BME280;4062;49.844;8.120;2023-02-28T10:26:44;100363.09;;;14.33;53.83
8039;BME280;4062;49.844;8.120;2023-02-28T10:28:45;100364.84;;;14.34;53.93
8039;BME280;4062;49.844;8.120;2023-02-28T10:30:52;100360.44;;;14.33;53.88
8039;BME280;4062;49.844;8.120;2023-02-28T10:32:53;100367.50;;;14.34;53.84
8039;BME280;4062;49.844;8.120;2023-02-28T10:35:21;100369.25;;;14.35;53.92
8039;BME280;4062;49.844;8.120;2023-02-28T10:37:22;100366.59;;;14.35;53.81
8039;BME280;4062;49.844;8.120;2023-02-28T10:39:45;100356.81;;;14.36;53.74
8039;BME280;4062;49.844;8.120;2023-02-28T10:41:48;100368.31;;;14.36;53.83
8039;BME280;4062;49.844;8.120;2023-02-28T10:43:49;100362.09;;;14.37;53.82
8039;BME280;4062;49.844;8.120;2023-02-28T10:46:03;100355.88;;;14.38;53.88
8039;BME280;4062;49.844;8.120;2023-02-28T10:50:50;100362.94;;;14.39;53.98
8039;BME280;4062;49.844;8.120;2023-02-28T10:52:53;100357.56;;;14.41;53.93
8039;BME280;4062;49.844;8.120;2023-02-28T10:55:21;100360.22;;;14.41;53.88
8039;BME280;4062;49.844;8.120;2023-02-28T10:57:24;100361.97;;;14.42;53.83
8039;BME280;4062;49.844;8.120;2023-02-28T10:59:30;100343.41;;;14.41;53.83
8039;BME280;4062;49.844;8.120;2023-02-28T11:01:41;100346.03;;;14.42;53.95
8039;BME280;4062;49.844;8.120;2023-02-28T11:03:42;100346.03;;;14.42;53.91
8039;BME280;4062;49.844;8.120;2023-02-28T11:05:43;100337.19;;;14.42;53.89
8039;BME280;4062;49.844;8.120;2023-02-28T11:08:06;100339.84;;;14.42;53.79
8039;BME280;4062;49.844;8.120;2023-02-28T11:10:19;100346.91;;;14.43;53.77
8039;BME280;4062;49.844;8.120;2023-02-28T11:12:54;100341.59;;;14.43;53.87
8039;BME280;4062;49.844;8.120;2023-02-28T11:15:06;100342.47;;;14.43;54.04
8039;BME280;4062;49.844;8.120;2023-02-28T11:17:43;100334.53;;;14.42;53.84
8039;BME280;4062;49.844;8.120;2023-02-28T11:19:51;100330.06;;;14.42;53.81
8039;BME280;4062;49.844;8.120;2023-02-28T11:21:59;100328.31;;;14.41;53.93
8039;BME280;4062;49.844;8.120;2023-02-28T11:24:02;100329.22;;;14.42;53.89
8039;BME280;4062;49.844;8.120;2023-02-28T11:26:04;100326.59;;;14.40;53.69
8039;BME280;4062;49.844;8.120;2023-02-28T11:30:40;100324.81;;;14.41;53.85
8039;BME280;4062;49.844;8.120;2023-02-28T11:32:48;100335.44;;;14.41;53.86
8039;BME280;4062;49.844;8.120;2023-02-28T11:37:18;100331.94;;;14.40;53.80
8039;BME280;4062;49.844;8.120;2023-02-28T11:39:19;100325.72;;;14.39;53.84
8039;BME280;4062;49.844;8.120;2023-02-28T11:41:57;100327.53;;;14.39;53.84
8039;BME280;4062;49.844;8.120;2023-02-28T11:44:28;100322.19;;;14.39;53.77
8039;BME280;4062;49.844;8.120;2023-02-28T11:46:49;100325.78;;;14.38;53.77
8039;BME280;4062;49.844;8.120;2023-02-28T11:49:19;100329.28;;;14.38;53.77
8039;BME280;4062;49.844;8.120;2023-02-28T11:51:28;100323.13;;;14.36;53.87